Time;durP1;ratioP1;P1;durP2;ratioP2;P2;SDS_P1;SDS_P2;PMS_P1;PMS_P2;Temp;Humidity;BMP_temperature;BMP_pressure;BME280_temperature;BME280_humidity;BME280_pressure;Samples;Min_cycle;Max_cycle;Signal;HPM_P1;HPM_P2
2023/09/29 00:00:13;;;;;;;;;;;;;;;15.00;100.00;96792.88;5105992;28;19936;-74
2023/09/29 00:02:40;;;;;;;;;;;;;;;14.99;100.00;96789.44;5106292;28;19951;-74
2023/09/29 00:05:06;;;;;;;;;;;;;;;14.98;100.00;96787.81;5089150;28;19939;-74
2023/09/29 00:07:32;;;;;;;;;;;;;;;14.95;100.00;96782.22;5089169;28;19944;-74
2023/09/29 00:09:57;;;;;;;;;;;;;;;14.92;100.00;96786.13;5105190;28;19944;-74
2023/09/29 00:12:23;;;;;;;;;;;;;;;14.87;100.00;96786.06;5105318;28;19935;-73
2023/09/29 00:14:49;;;;;;;;;;;;;;;14.82;100.00;96785.94;5088125;28;20160;-76
2023/09/29 00:17:15;;;;;;;;;;;;;;;14.72;100.00;96798.94;5105916;28;19939;-75
2023/09/29 00:19:41;;;;;;;;;;;;;;;14.67;100.00;96790.94;5106487;28;19943;-75
2023/09/29 00:22:07;;;;;;;;;;;;;;;14.64;100.00;96791.44;5088836;28;19971;-75
2023/09/29 00:24:32;;;;;;;;;;;;;;;14.63;100.00;96795.88;5088141;28;19942;-75
2023/09/29 00:26:58;;;;;;;;;;;;;;;14.61;100.00;96800.59;5104916;28;19957;-75
2023/09/29 00:29:24;;;;;;;;;;;;;;;14.58;100.00;96793.16;5106094;28;20078;-75
2023/09/29 00:31:50;;;;;;;;;;;;;;;14.54;100.00;96795.44;5105681;28;19942;-73
2023/09/29 00:34:16;;;;;;;;;;;;;;;14.52;100.00;96788.78;5087841;28;19957;-74
2023/09/29 00:36:42;;;;;;;;;;;;;;;14.49;100.00;96791.88;5105533;28;19937;-75
2023/09/29 00:39:11;;;;;;;;;;;;;;;14.46;100.00;96787.88;5105784;28;19938;-75
2023/09/29 00:41:37;;;;;;;;;;;;;;;14.44;100.00;96783.88;5105716;28;19936;-75
2023/09/29 00:44:03;;;;;;;;;;;;;;;14.40;100.00;96784.34;5105737;28;20161;-75
2023/09/29 00:46:29;;;;;;;;;;;;;;;14.38;100.00;96791.72;5104372;28;20134;-75
2023/09/29 00:48:55;;;;;;;;;;;;;;;14.38;100.00;96788.25;5105330;28;19934;-76
2023/09/29 00:51:21;;;;;;;;;;;;;;;14.36;100.00;96795.59;5104510;28;19937;-74
2023/09/29 00:53:50;;;;;;;;;;;;;;;14.36;100.00;96792.94;5088346;28;20217;-75
2023/09/29 00:56:16;;;;;;;;;;;;;;;14.34;100.00;96790.56;5105751;28;19937;-75
2023/09/29 00:58:42;;;;;;;;;;;;;;;14.32;100.00;96790.00;5084029;28;19940;-75
2023/09/29 01:01:08;;;;;;;;;;;;;;;14.30;100.00;96792.06;5084157;28;19933;-75
2023/09/29 01:03:34;;;;;;;;;;;;;;;14.30;100.00;96792.06;5083557;28;19934;-75
2023/09/29 01:06:00;;;;;;;;;;;;;;;14.31;100.00;96791.03;5083216;28;20248;-75
2023/09/29 01:08:29;;;;;;;;;;;;;;;14.32;100.00;96797.09;5083413;28;19930;-73
2023/09/29 01:10:55;;;;;;;;;;;;;;;14.31;100.00;96796.28;5050660;28;19936;-75
2023/09/29 01:13:22;;;;;;;;;;;;;;;14.28;100.00;96782.75;5083713;28;20227;-75
2023/09/29 01:15:49;;;;;;;;;;;;;;;14.27;100.00;96783.81;5066748;28;19963;-75
2023/09/29 01:18:19;;;;;;;;;;;;;;;14.25;100.00;96788.50;5049635;28;19960;-75
2023/09/29 01:20:45;;;;;;;;;;;;;;;14.23;100.00;96780.03;5083725;28;20111;-75
2023/09/29 01:23:11;;;;;;;;;;;;;;;14.20;100.00;96778.66;5083793;28;19940;-75
2023/09/29 01:25:37;;;;;;;;;;;;;;;14.17;100.00;96787.84;5066271;28;19928;-74
2023/09/29 01:28:05;;;;;;;;;;;;;;;14.16;100.00;96790.72;5083590;28;19942;-74
2023/09/29 01:30:31;;;;;;;;;;;;;;;14.14;100.00;96776.94;5097011;28;19933;-74
2023/09/29 01:32:57;;;;;;;;;;;;;;;14.12;100.00;96789.56;5087586;28;19959;-74
2023/09/29 01:35:24;;;;;;;;;;;;;;;14.11;100.00;96785.31;5104419;28;19950;-74
2023/09/29 01:37:50;;;;;;;;;;;;;;;14.08;100.00;96781.31;5105563;28;19933;-75
2023/09/29 01:40:17;;;;;;;;;;;;;;;14.06;100.00;96777.31;5104705;28;19930;-74
2023/09/29 01:42:44;;;;;;;;;;;;;;;14.02;100.00;96774.31;5105209;28;19991;-74
2023/09/29 01:45:14;;;;;;;;;;;;;;;13.96;100.00;96768.16;5087431;28;19953;-74
2023/09/29 01:47:41;;;;;;;;;;;;;;;13.90;100.00;96768.25;5104791;28;19956;-72
2023/09/29 01:50:07;;;;;;;;;;;;;;;13.87;100.00;96764.25;5103367;28;19949;-72
2023/09/29 01:52:33;;;;;;;;;;;;;;;13.87;100.00;96766.09;5104206;28;19946;-72
2023/09/29 01:55:03;;;;;;;;;;;;;;;13.88;100.00;96776.41;5086543;28;19939;-72
2023/09/29 01:57:29;;;;;;;;;;;;;;;13.89;100.00;96767.47;5103643;28;19931;-72
2023/09/29 01:59:55;;;;;;;;;;;;;;;13.90;100.00;96768.25;5103982;28;19944;-72
2023/09/29 02:02:21;;;;;;;;;;;;;;;13.88;100.00;96771.16;5086262;28;19957;-71
2023/09/29 02:04:47;;;;;;;;;;;;;;;13.86;100.00;96765.28;5104867;28;19927;-83
2023/09/29 02:07:13;;;;;;;;;;;;;;;13.84;100.00;96777.91;5103064;28;19964;-83
2023/09/29 02:09:39;;;;;;;;;;;;;;;13.78;100.00;96763.81;5104274;28;19939;-83
2023/09/29 02:12:06;;;;;;;;;;;;;;;13.75;100.00;96759.00;5104759;28;19945;-83
2023/09/29 02:14:31;;;;;;;;;;;;;;;13.72;100.00;96756.81;5104202;28;19940;-83
2023/09/29 02:16:58;;;;;;;;;;;;;;;13.72;100.00;96766.56;5102963;28;19965;-83
2023/09/29 02:19:24;;;;;;;;;;;;;;;13.71;100.00;96767.56;5104671;28;20088;-83
2023/09/29 02:21:50;;;;;;;;;;;;;;;13.72;100.00;96769.19;5103940;28;19944;-72
2023/09/29 02:24:16;;;;;;;;;;;;;;;13.73;100.00;96771.59;5104670;28;19957;-72
2023/09/29 02:26:42;;;;;;;;;;;;;;;13.72;100.00;96763.94;5103102;28;19953;-72
2023/09/29 02:29:08;;;;;;;;;;;;;;;13.71;100.00;96770.22;5104065;28;19977;-72
2023/09/29 02:31:36;;;;;;;;;;;;;;;13.69;100.00;96767.00;5104043;28;19937;-72
2023/09/29 02:34:07;;;;;;;;;;;;;;;13.68;100.00;96768.84;5102909;28;19937;-72
2023/09/29 02:36:34;;;;;;;;;;;;;;;13.65;100.00;96763.22;5102767;28;19949;-72
2023/09/29 02:39:03;;;;;;;;;;;;;;;13.65;100.00;96768.50;5103680;28;19937;-83
2023/09/29 02:41:30;;;;;;;;;;;;;;;13.60;100.00;96762.06;5104519;28;20218;-83
2023/09/29 02:43:56;;;;;;;;;;;;;;;13.63;100.00;96775.81;5104499;28;19934;-75
2023/09/29 02:46:22;;;;;;;;;;;;;;;13.64;100.00;96761.63;5104354;28;19956;-75
2023/09/29 02:48:48;;;;;;;;;;;;;;;13.65;100.00;96755.31;5103961;28;19949;-75
2023/09/29 02:51:15;;;;;;;;;;;;;;;13.68;100.00;96762.78;5102756;28;19934;-75
2023/09/29 02:53:41;;;;;;;;;;;;;;;13.69;100.00;96761.72;5104361;28;19934;-75
2023/09/29 02:56:10;;;;;;;;;;;;;;;13.71;100.00;96757.03;5103834;28;19939;-75
2023/09/29 02:58:36;;;;;;;;;;;;;;;13.72;100.00;96761.28;5104254;28;19936;-74
2023/09/29 03:01:02;;;;;;;;;;;;;;;13.72;100.00;96756.81;5103393;28;19961;-75
2023/09/29 03:03:28;;;;;;;;;;;;;;;13.72;100.00;96751.53;5103229;28;20217;-75
2023/09/29 03:05:54;;;;;;;;;;;;;;;13.73;100.00;96744.44;5102578;28;20118;-75
2023/09/29 03:08:19;;;;;;;;;;;;;;;13.73;100.00;96745.25;5102637;28;19941;-75
2023/09/29 03:10:45;;;;;;;;;;;;;;;13.73;100.00;96747.88;5105531;28;19981;-75
2023/09/29 03:13:11;;;;;;;;;;;;;;;13.75;100.00;96747.63;5089439;28;19990;-75
2023/09/29 03:15:37;;;;;;;;;;;;;;;13.74;100.00;96738.94;5106557;28;20000;-71
2023/09/29 03:18:05;;;;;;;;;;;;;;;13.75;100.00;96747.63;5106210;28;19940;-71
2023/09/29 03:20:32;;;;;;;;;;;;;;;13.73;100.00;96744.44;5108226;28;19940;-71
2023/09/29 03:23:04;;;;;;;;;;;;;;;13.71;100.00;96742.03;5108116;28;19946;-71
2023/09/29 03:25:29;;;;;;;;;;;;;;;13.72;100.00;96753.38;5107624;28;19937;-71
2023/09/29 03:27:55;;;;;;;;;;;;;;;13.70;100.00;96748.34;5107496;28;19950;-72
2023/09/29 03:30:21;;;;;;;;;;;;;;;13.71;100.00;96749.13;5107248;28;19966;-71
2023/09/29 03:32:47;;;;;;;;;;;;;;;13.70;100.00;96748.34;5107368;28;19936;-71
2023/09/29 03:35:13;;;;;;;;;;;;;;;13.69;100.00;96748.56;5107821;28;19948;-72
2023/09/29 03:37:40;;;;;;;;;;;;;;;13.68;100.00;96750.41;5106714;28;19940;-75
2023/09/29 03:40:09;;;;;;;;;;;;;;;13.67;100.00;96745.34;5107015;28;19938;-75
2023/09/29 03:42:41;;;;;;;;;;;;;;;13.68;100.00;96754.88;5106695;28;19941;-75
2023/09/29 03:45:09;;;;;;;;;;;;;;;13.69;100.00;96753.81;5107661;28;19934;-75
2023/09/29 03:47:35;;;;;;;;;;;;;;;13.68;100.00;96752.22;5107262;28;19937;-75
2023/09/29 03:50:01;;;;;;;;;;;;;;;13.66;100.00;96749.81;5105978;28;19939;-75
2023/09/29 03:52:30;;;;;;;;;;;;;;;13.67;100.00;96758.53;5106813;28;20138;-72
2023/09/29 03:54:56;;;;;;;;;;;;;;;13.64;100.00;96754.53;5105628;28;19936;-72
2023/09/29 03:57:22;;;;;;;;;;;;;;;13.61;100.00;96760.25;5107252;28;19933;-72
2023/09/29 03:59:48;;;;;;;;;;;;;;;13.61;100.00;96762.91;5106239;28;19984;-72
2023/09/29 04:02:14;;;;;;;;;;;;;;;13.60;100.00;96758.66;5107314;28;19978;-73
2023/09/29 04:04:40;;;;;;;;;;;;;;;13.58;100.00;96750.16;5106591;28;19947;-72
2023/09/29 04:07:06;;;;;;;;;;;;;;;13.58;100.00;96750.97;5089088;28;19947;-72
2023/09/29 04:09:32;;;;;;;;;;;;;;;13.58;100.00;96758.06;5106385;28;19943;-72
2023/09/29 04:11:57;;;;;;;;;;;;;;;13.58;100.00;96760.72;5106949;28;20254;-75
2023/09/29 04:14:23;;;;;;;;;;;;;;;13.57;100.00;96756.47;5105183;28;19934;-74
2023/09/29 04:16:49;;;;;;;;;;;;;;;13.56;100.00;96766.19;5088158;28;19968;-73
2023/09/29 04:19:15;;;;;;;;;;;;;;;13.57;100.00;96767.81;5105626;28;19938;-74
2023/09/29 04:21:41;;;;;;;;;;;;;;;13.58;100.00;96763.34;5104765;28;19944;-73
2023/09/29 04:24:07;;;;;;;;;;;;;;;13.59;100.00;96768.38;5088807;28;19940;-74
2023/09/29 04:26:35;;;;;;;;;;;;;;;13.58;100.00;96772.03;5105001;28;19992;-74
2023/09/29 04:29:01;;;;;;;;;;;;;;;13.57;100.00;96790.75;5088003;28;19947;-73
2023/09/29 04:31:27;;;;;;;;;;;;;;;13.57;100.00;96793.38;5106894;28;19974;-73
2023/09/29 04:33:52;;;;;;;;;;;;;;;13.53;100.00;96787.75;5105018;28;19940;-75
2023/09/29 04:36:18;;;;;;;;;;;;;;;13.52;100.00;96782.69;5105921;28;19962;-75
2023/09/29 04:38:45;;;;;;;;;;;;;;;13.50;100.00;96777.69;5105469;28;19932;-75
2023/09/29 04:41:12;;;;;;;;;;;;;;;13.50;100.00;96776.84;5106282;28;19937;-75
2023/09/29 04:43:38;;;;;;;;;;;;;;;13.46;100.00;96767.78;5104670;28;19934;-75
2023/09/29 04:46:03;;;;;;;;;;;;;;;13.44;100.00;96772.50;5105142;28;19959;-75
2023/09/29 04:48:29;;;;;;;;;;;;;;;13.45;100.00;96768.84;5105229;28;19943;-82
2023/09/29 04:50:55;;;;;;;;;;;;;;;13.44;100.00;96770.69;5088300;28;20020;-83
2023/09/29 04:53:21;;;;;;;;;;;;;;;13.46;100.00;96773.88;5105008;28;19941;-82
2023/09/29 04:55:47;;;;;;;;;;;;;;;13.48;100.00;96773.63;5105491;28;19952;-82
2023/09/29 04:58:13;;;;;;;;;;;;;;;13.49;100.00;96783.97;5106307;28;19942;-82
2023/09/29 05:00:39;;;;;;;;;;;;;;;13.50;100.00;96775.03;5105447;28;19944;-82
2023/09/29 05:03:05;;;;;;;;;;;;;;;13.52;100.00;96780.88;5087398;28;19963;-82
2023/09/29 05:05:31;;;;;;;;;;;;;;;13.54;100.00;96781.47;5105024;28;19977;-83
2023/09/29 05:07:56;;;;;;;;;;;;;;;13.57;100.00;96782.84;5087230;28;20279;-75
2023/09/29 05:10:22;;;;;;;;;;;;;;;13.58;100.00;96776.50;5104994;28;19982;-82
2023/09/29 05:12:48;;;;;;;;;;;;;;;13.62;100.00;96788.19;5104997;28;19929;-82
2023/09/29 05:15:14;;;;;;;;;;;;;;;13.65;100.00;96779.03;5104192;28;20298;-81
2023/09/29 05:17:40;;;;;;;;;;;;;;;13.68;100.00;96782.03;5105958;28;19946;-82
2023/09/29 05:20:06;;;;;;;;;;;;;;;13.72;100.00;96787.66;5105613;28;20110;-82
2023/09/29 05:22:32;;;;;;;;;;;;;;;13.76;100.00;96794.06;5105090;28;19940;-82
2023/09/29 05:24:58;;;;;;;;;;;;;;;13.77;100.00;96785.13;5104974;28;19934;-82
2023/09/29 05:27:24;;;;;;;;;;;;;;;13.81;100.00;96799.44;5104914;28;19948;-72
2023/09/29 05:29:50;;;;;;;;;;;;;;;13.83;100.00;96794.75;5105126;28;20227;-71
2023/09/29 05:32:16;;;;;;;;;;;;;;;13.86;100.00;96793.47;5105051;28;19973;-73
2023/09/29 05:34:42;;;;;;;;;;;;;;;13.89;100.00;96790.41;5104602;28;20305;-72
2023/09/29 05:37:08;;;;;;;;;;;;;;;13.92;100.00;96788.09;5104734;28;20158;-71
2023/09/29 05:39:34;;;;;;;;;;;;;;;13.97;100.00;96800.59;5104715;28;20077;-71
2023/09/29 05:42:00;;;;;;;;;;;;;;;13.99;100.00;96790.63;5105138;28;19934;-71
2023/09/29 05:44:26;;;;;;;;;;;;;;;14.03;100.00;96786.50;5104650;28;19937;-73
2023/09/29 05:46:52;;;;;;;;;;;;;;;14.07;100.00;96789.44;5110437;23;19975;-77
2023/09/29 05:49:18;;;;;;;;;;;;;;;14.10;100.00;96787.16;5063661;28;19938;-77
2023/09/29 05:51:44;;;;;;;;;;;;;;;14.18;100.00;96791.28;5064175;28;19944;-77
2023/09/29 05:54:10;;;;;;;;;;;;;;;14.35;100.00;96789.53;5064146;28;19935;-77
2023/09/29 05:56:36;;;;;;;;;;;;;;;14.74;100.00;96792.44;5064114;28;19974;-77
2023/09/29 05:59:02;;;;;;;;;;;;;;;15.17;100.00;96783.13;5063025;28;20128;-77
2023/09/29 06:01:28;;;;;;;;;;;;;;;15.58;100.00;96773.22;5064049;28;20041;-77
2023/09/29 06:03:53;;;;;;;;;;;;;;;15.93;100.00;96774.00;5064533;28;19942;-77
2023/09/29 06:06:19;;;;;;;;;;;;;;;16.21;100.00;96760.63;5063928;28;20006;-77
2023/09/29 06:08:45;;;;;;;;;;;;;;;16.39;100.00;96746.28;5063344;28;19962;-77
2023/09/29 06:11:12;;;;;;;;;;;;;;;16.41;100.00;96754.75;5063910;28;20133;-77
2023/09/29 06:13:38;;;;;;;;;;;;;;;16.31;100.00;96756.50;5063825;28;19935;-77
2023/09/29 06:16:04;;;;;;;;;;;;;;;16.22;100.00;96761.41;5064663;28;19956;-77
2023/09/29 06:18:30;;;;;;;;;;;;;;;16.15;100.00;96764.25;5063799;28;19951;-77
2023/09/29 06:20:56;;;;;;;;;;;;;;;16.28;100.00;96767.59;5063823;28;19939;-77
2023/09/29 06:23:22;;;;;;;;;;;;;;;16.41;100.00;96769.84;5063768;28;20244;-77
2023/09/29 06:25:55;;;;;;;;;;;;;;;16.39;100.00;96778.03;5064645;28;20228;-77
2023/09/29 06:28:21;;;;;;;;;;;;;;;16.49;100.00;96773.94;5063675;28;19954;-77
2023/09/29 06:30:47;;;;;;;;;;;;;;;16.41;100.00;96781.22;5063736;28;19989;-77
2023/09/29 06:33:12;;;;;;;;;;;;;;;16.30;100.00;96791.97;5064167;28;19932;-77
2023/09/29 06:35:40;;;;;;;;;;;;;;;16.15;100.00;96782.78;5062417;28;19964;-77
2023/09/29 06:38:06;;;;;;;;;;;;;;;16.03;100.00;96798.75;5063578;28;19941;-77
2023/09/29 06:40:32;;;;;;;;;;;;;;;15.91;100.00;96800.69;5063321;28;19939;-77
2023/09/29 06:42:58;;;;;;;;;;;;;;;15.81;100.00;96811.13;5064445;28;20004;-78
2023/09/29 06:45:27;;;;;;;;;;;;;;;15.74;100.00;96818.44;5067079;28;19943;-77
2023/09/29 06:47:53;;;;;;;;;;;;;;;15.69;100.00;96828.91;5067374;28;20156;-77
2023/09/29 06:50:19;;;;;;;;;;;;;;;15.65;100.00;96819.84;5068291;28;19937;-77
2023/09/29 06:52:45;;;;;;;;;;;;;;;15.63;100.00;96820.88;5067834;28;19956;-78
2023/09/29 06:55:13;;;;;;;;;;;;;;;15.67;100.00;96828.34;5068323;28;20195;-81
2023/09/29 06:57:39;;;;;;;;;;;;;;;15.73;100.00;96825.56;5067444;28;19936;-79
2023/09/29 07:00:06;;;;;;;;;;;;;;;15.75;100.00;96830.63;5067351;28;19941;-79
2023/09/29 07:02:32;;;;;;;;;;;;;;;15.76;100.00;96817.13;5066222;28;19943;-78
2023/09/29 07:04:58;;;;;;;;;;;;;;;15.78;100.00;96817.69;5067297;28;19962;-80
2023/09/29 07:07:24;;;;;;;;;;;;;;;15.82;100.00;96823.31;5067974;28;19981;-78
2023/09/29 07:09:50;;;;;;;;;;;;;;;15.83;100.00;96820.44;5067257;28;19934;-79
2023/09/29 07:12:15;;;;;;;;;;;;;;;15.88;100.00;96827.63;5067121;28;19939;-79
2023/09/29 07:14:41;;;;;;;;;;;;;;;15.93;100.00;96825.06;5067170;28;20273;-79
2023/09/29 07:17:07;;;;;;;;;;;;;;;15.99;100.00;96824.09;5067075;28;20106;-79
2023/09/29 07:19:34;;;;;;;;;;;;;;;16.06;100.00;96818.63;5067547;28;19939;-78
2023/09/29 07:22:01;;;;;;;;;;;;;;;16.13;100.00;96810.53;5065899;28;19938;-81
2023/09/29 07:24:27;;;;;;;;;;;;;;;16.19;100.00;96813.00;5067517;28;20117;-79
2023/09/29 07:26:53;;;;;;;;;;;;;;;16.28;100.00;96817.88;5066509;28;19943;-79
2023/09/29 07:29:19;;;;;;;;;;;;;;;16.34;100.00;96811.59;5066833;28;19942;-80
2023/09/29 07:31:48;;;;;;;;;;;;;;;16.40;100.00;96814.06;5065727;28;20191;-78
2023/09/29 07:34:15;;;;;;;;;;;;;;;16.45;100.00;96821.25;5067320;28;19962;-77
2023/09/29 07:36:43;;;;;;;;;;;;;;;16.50;100.00;96821.31;5049069;28;19939;-78
2023/09/29 07:39:11;;;;;;;;;;;;;;;16.52;100.00;96811.28;5066628;28;19941;-81
2023/09/29 07:41:37;;;;;;;;;;;;;;;16.54;100.00;96813.69;5065404;28;19933;-81
2023/09/29 07:44:03;;;;;;;;;;;;;;;16.57;100.00;96811.34;5066563;28;19980;-81
2023/09/29 07:46:29;;;;;;;;;;;;;;;16.62;100.00;96815.91;5066333;28;20004;-81
2023/09/29 07:48:55;;;;;;;;;;;;;;;16.68;100.00;96812.25;5067217;28;19953;-81
2023/09/29 07:51:21;;;;;;;;;;;;;;;16.78;100.00;96828.28;5066471;28;19943;-83
2023/09/29 07:53:47;;;;;;;;;;;;;;;16.90;100.00;96830.78;5066435;28;20224;-81
2023/09/29 07:56:12;;;;;;;;;;;;;;;16.99;100.00;96821.38;5065090;28;19950;-78
2023/09/29 07:58:38;;;;;;;;;;;;;;;17.04;100.00;96825.91;5066315;28;19944;-80
2023/09/29 08:01:04;;;;;;;;;;;;;;;17.09;100.00;96825.97;5066232;28;19940;-81
2023/09/29 08:03:30;;;;;;;;;;;;;;;17.14;100.00;96836.63;5066185;28;19940;-79
2023/09/29 08:05:56;;;;;;;;;;;;;;;17.19;100.00;96831.38;5066205;28;19946;-80
2023/09/29 08:08:24;;;;;;;;;;;;;;;17.29;100.00;96832.53;5064915;28;19966;-80
2023/09/29 08:10:50;;;;;;;;;;;;;;;17.41;100.00;96826.00;5066102;28;20351;-80
2023/09/29 08:13:16;;;;;;;;;;;;;;;17.64;100.00;96818.78;5066036;28;19947;-80
2023/09/29 08:15:42;;;;;;;;;;;;;;;18.02;100.00;96803.69;5066466;28;19936;-80
2023/09/29 08:18:08;;;;;;;;;;;;;;;18.46;100.00;96806.03;5065906;28;20000;-79
2023/09/29 08:20:35;;;;;;;;;;;;;;;18.77;100.00;96793.66;5066607;28;19943;-80
2023/09/29 08:23:00;;;;;;;;;;;;;;;18.87;95.92;96750.38;5066115;28;20128;-80
2023/09/29 08:25:26;;;;;;;;;;;;;;;18.91;99.86;96778.00;5066169;28;19998;-80
2023/09/29 08:27:52;;;;;;;;;;;;;;;18.96;100.00;96786.00;5064570;28;19957;-78
2023/09/29 08:30:18;;;;;;;;;;;;;;;18.96;95.42;96763.94;5065644;28;19945;-80
2023/09/29 08:32:44;;;;;;;;;;;;;;;19.04;97.33;96771.38;5065965;28;19988;-80
2023/09/29 08:35:13;;;;;;;;;;;;;;;19.18;94.18;96747.75;5066048;28;20276;-78
2023/09/29 08:37:40;;;;;;;;;;;;;;;19.40;97.90;96779.38;5065596;28;19935;-77
2023/09/29 08:40:09;;;;;;;;;;;;;;;19.64;95.64;96767.16;5065099;28;19943;-78
2023/09/29 08:42:36;;;;;;;;;;;;;;;19.86;95.63;96764.22;5081042;28;20131;-77
2023/09/29 08:45:05;;;;;;;;;;;;;;;20.02;93.05;96738.34;5065030;28;20104;-78
2023/09/29 08:47:35;;;;;;;;;;;;;;;20.12;93.09;96732.22;5064145;28;20252;-78
2023/09/29 08:50:04;;;;;;;;;;;;;;;20.11;93.91;96751.09;5066083;28;20117;-78
2023/09/29 08:52:31;;;;;;;;;;;;;;;20.09;91.79;96738.06;5065403;28;19947;-77
2023/09/29 08:54:57;;;;;;;;;;;;;;;20.07;91.27;96749.00;5065272;28;20118;-76
2023/09/29 08:57:24;;;;;;;;;;;;;;;20.08;94.45;96771.88;5065108;28;19938;-77
2023/09/29 08:59:52;;;;;;;;;;;;;;;20.08;93.96;96761.22;5065684;28;19947;-76
2023/09/29 09:02:18;;;;;;;;;;;;;;;20.09;93.56;96762.03;5065782;28;19934;-77
2023/09/29 09:04:44;;;;;;;;;;;;;;;20.18;95.03;96763.06;5065341;28;19955;-76
2023/09/29 09:07:12;;;;;;;;;;;;;;;20.22;95.75;96761.47;5064965;28;20299;-77
2023/09/29 09:09:37;;;;;;;;;;;;;;;20.25;96.29;96766.25;5065342;28;19935;-77
2023/09/29 09:12:04;;;;;;;;;;;;;;;20.27;95.10;96757.97;5064918;28;19941;-78
2023/09/29 09:14:43;;;;;;;;;;;;;;;20.27;94.04;96747.31;5064918;28;19937;-77
2023/09/29 09:17:10;;;;;;;;;;;;;;;20.28;95.85;96757.72;5064814;28;19934;-77
2023/09/29 09:19:50;;;;;;;;;;;;;;;20.32;98.62;96775.81;5064857;28;19939;-76
2023/09/29 09:22:31;;;;;;;;;;;;;;;20.37;92.90;96741.16;5065069;28;19938;-76
2023/09/29 09:24:58;;;;;;;;;;;;;;;20.44;93.70;96750.44;5064499;28;19961;-77
2023/09/29 09:27:24;;;;;;;;;;;;;;;20.54;93.29;96748.81;5063357;28;20276;-76
2023/09/29 09:29:50;;;;;;;;;;;;;;;20.64;93.97;96748.78;5064636;28;19927;-77
2023/09/29 09:32:26;;;;;;;;;;;;;;;20.73;94.95;96759.66;5064600;28;19931;-77
2023/09/29 09:34:52;;;;;;;;;;;;;;;20.82;91.47;96742.00;5064431;28;20185;-77
2023/09/29 09:37:26;;;;;;;;;;;;;;;20.92;94.34;96762.50;5064468;28;19935;-77
2023/09/29 09:39:53;;;;;;;;;;;;;;;20.99;93.40;96755.75;5064461;28;19932;-77
2023/09/29 09:42:23;;;;;;;;;;;;;;;21.05;92.02;96741.31;5063982;28;19934;-77
2023/09/29 09:44:49;;;;;;;;;;;;;;;21.09;93.61;96753.03;5064348;28;19933;-76
2023/09/29 09:47:16;;;;;;;;;;;;;;;21.14;92.24;96748.72;5064284;28;20028;-77
2023/09/29 09:49:45;;;;;;;;;;;;;;;21.15;92.88;96753.78;5064728;28;20085;-77
2023/09/29 09:52:15;;;;;;;;;;;;;;;21.19;94.59;96756.72;5063134;28;19932;-74
2023/09/29 09:54:46;;;;;;;;;;;;;;;21.23;87.27;96728.38;5064597;28;19933;-74
2023/09/29 09:57:17;;;;;;;;;;;;;;;21.33;91.04;96749.63;5064266;28;19927;-74
2023/09/29 09:59:44;;;;;;;;;;;;;;;21.42;87.54;96720.53;5065050;28;19944;-74
2023/09/29 10:02:11;;;;;;;;;;;;;;;21.46;83.58;96706.34;5064221;28;19958;-77
2023/09/29 10:04:40;;;;;;;;;;;;;;;21.56;86.13;96726.00;5063127;28;20235;-76
2023/09/29 10:07:06;;;;;;;;;;;;;;;21.65;84.13;96714.44;5064674;28;19938;-77
2023/09/29 10:09:39;;;;;;;;;;;;;;;21.77;87.05;96732.72;5064015;28;19961;-76
2023/09/29 10:12:05;;;;;;;;;;;;;;;21.88;86.50;96734.22;5064603;28;20214;-77
2023/09/29 10:14:40;;;;;;;;;;;;;;;21.97;85.04;96730.94;5063806;28;19940;-76
2023/09/29 10:17:07;;;;;;;;;;;;;;;22.08;85.18;96735.06;5064801;28;19941;-77
2023/09/29 10:19:38;;;;;;;;;;;;;;;22.22;86.06;96749.34;5063667;28;20214;-76
2023/09/29 10:22:06;;;;;;;;;;;;;;;22.33;84.60;96742.03;5063971;28;19937;-76
2023/09/29 10:24:32;;;;;;;;;;;;;;;22.46;84.93;96752.00;5062719;28;19939;-75
2023/09/29 10:27:11;;;;;;;;;;;;;;;22.58;82.63;96742.78;5063913;28;20118;-76
2023/09/29 10:29:38;;;;;;;;;;;;;;;22.71;82.07;96744.72;5064363;28;19950;-76
2023/09/29 10:32:10;;;;;;;;;;;;;;;22.84;86.14;96762.72;5064339;28;19937;-77
2023/09/29 10:34:36;;;;;;;;;;;;;;;22.99;83.51;96747.53;5064055;28;19946;-75
2023/09/29 10:37:03;;;;;;;;;;;;;;;23.10;81.18;96736.44;5063844;28;19941;-75
2023/09/29 10:39:29;;;;;;;;;;;;;;;23.26;77.32;96726.28;5063805;28;19944;-74
2023/09/29 10:41:59;;;;;;;;;;;;;;;23.44;80.38;96740.72;5064603;28;19940;-75
2023/09/29 10:44:28;;;;;;;;;;;;;;;23.64;77.95;96730.72;5064519;28;19937;-75
2023/09/29 10:46:54;;;;;;;;;;;;;;;23.84;78.25;96743.00;5063995;28;19970;-74
2023/09/29 10:49:29;;;;;;;;;;;;;;;24.02;79.58;96735.97;5063598;28;19953;-75
2023/09/29 10:51:56;;;;;;;;;;;;;;;24.22;76.92;96729.41;5064318;28;19943;-75
2023/09/29 10:54:23;;;;;;;;;;;;;;;24.37;73.40;96722.94;5063611;28;19936;-73
2023/09/29 10:56:49;;;;;;;;;;;;;;;24.56;74.43;96722.84;5064040;28;20123;-74
2023/09/29 10:59:15;;;;;;;;;;;;;;;24.75;76.11;96725.38;5063589;28;19931;-75
2023/09/29 11:01:44;;;;;;;;;;;;;;;24.96;76.15;96734.53;5064142;28;19936;-74
2023/09/29 11:04:10;;;;;;;;;;;;;;;25.18;74.10;96731.09;5063493;28;20009;-75
2023/09/29 11:06:45;;;;;;;;;;;;;;;25.39;70.62;96723.38;5064116;28;20101;-74
2023/09/29 11:09:20;;;;;;;;;;;;;;;25.58;69.82;96722.38;5064285;28;19954;-75
2023/09/29 11:11:46;;;;;;;;;;;;;;;25.69;69.18;96734.41;5063526;28;19931;-74
2023/09/29 11:14:12;;;;;;;;;;;;;;;25.83;71.45;96739.69;5063985;28;19941;-75
2023/09/29 11:16:38;;;;;;;;;;;;;;;25.97;71.57;96735.03;5064258;28;19929;-74
2023/09/29 11:19:11;;;;;;;;;;;;;;;26.05;70.57;96731.59;5063675;28;19931;-75
2023/09/29 11:21:37;;;;;;;;;;;;;;;26.16;70.20;96734.78;5063704;28;20191;-75
2023/09/29 11:24:04;;;;;;;;;;;;;;;26.23;67.76;96726.28;5063415;28;19934;-74
2023/09/29 11:26:30;;;;;;;;;;;;;;;26.30;70.30;96726.63;5063385;28;19938;-74
2023/09/29 11:28:56;;;;;;;;;;;;;;;26.39;70.19;96722.03;5063266;28;19950;-74
2023/09/29 11:31:22;;;;;;;;;;;;;;;26.47;70.00;96733.94;5064860;28;19936;-75
2023/09/29 11:33:47;;;;;;;;;;;;;;;26.49;67.47;96721.75;5066957;28;19928;-74
2023/09/29 11:36:15;;;;;;;;;;;;;;;26.46;67.45;96718.91;5066870;28;19946;-75
2023/09/29 11:38:41;;;;;;;;;;;;;;;26.41;66.75;96716.34;5067676;28;19949;-75
2023/09/29 11:41:07;;;;;;;;;;;;;;;26.43;66.67;96717.63;5066819;28;19937;-75
2023/09/29 11:43:33;;;;;;;;;;;;;;;26.53;68.64;96724.59;5067675;28;19933;-75
2023/09/29 11:45:59;;;;;;;;;;;;;;;26.62;65.78;96730.81;5066804;28;19935;-75
2023/09/29 11:48:25;;;;;;;;;;;;;;;26.57;68.55;96725.59;5066453;28;19958;-74
2023/09/29 11:50:53;;;;;;;;;;;;;;;26.51;66.08;96721.44;5066652;28;19940;-75
2023/09/29 11:53:19;;;;;;;;;;;;;;;26.51;66.43;96727.59;5066537;28;20229;-74
2023/09/29 11:55:45;;;;;;;;;;;;;;;26.60;66.14;96719.56;5065481;28;19941;-74
2023/09/29 11:58:11;;;;;;;;;;;;;;;26.65;67.25;96719.44;5067293;28;19946;-73
2023/09/29 12:00:39;;;;;;;;;;;;;;;26.67;66.80;96714.53;5066439;28;19943;-75
2023/09/29 12:03:06;;;;;;;;;;;;;;;26.65;67.39;96719.44;5067248;28;19933;-76
2023/09/29 12:05:32;;;;;;;;;;;;;;;26.71;65.85;96709.28;5066452;28;20117;-75
2023/09/29 12:07:58;;;;;;;;;;;;;;;26.78;68.82;96708.84;5066170;28;19957;-75
2023/09/29 12:10:24;;;;;;;;;;;;;;;26.73;64.89;96702.50;5067068;28;19931;-75
2023/09/29 12:12:50;;;;;;;;;;;;;;;26.60;66.23;96710.72;5066218;28;19935;-74
2023/09/29 12:15:17;;;;;;;;;;;;;;;26.45;65.80;96715.41;5066110;28;19940;-75
2023/09/29 12:17:44;;;;;;;;;;;;;;;26.46;66.51;96708.94;5066109;28;20127;-75
2023/09/29 12:20:13;;;;;;;;;;;;;;;26.52;66.69;96715.75;5066821;28;20115;-75
2023/09/29 12:22:43;;;;;;;;;;;;;;;26.67;67.01;96709.16;5065692;28;19938;-75
2023/09/29 12:25:13;;;;;;;;;;;;;;;26.79;67.04;96711.19;5066033;28;19944;-75
2023/09/29 12:27:40;;;;;;;;;;;;;;;26.88;65.34;96701.25;5065603;28;19960;-75
2023/09/29 12:30:08;;;;;;;;;;;;;;;26.81;64.46;96705.50;5065871;28;20239;-76
2023/09/29 12:32:35;;;;;;;;;;;;;;;26.64;66.04;96703.59;5065869;28;19956;-76
2023/09/29 12:35:01;;;;;;;;;;;;;;;26.47;65.89;96709.72;5064696;28;19954;-75
2023/09/29 12:37:28;;;;;;;;;;;;;;;26.35;67.72;96702.25;5064704;28;19977;-76